Weather at Winchell Mountain Airport

Public forecast

Using degrees Fahrenheit for public forecast. Weather courtesy of forecast.io.

Closest aviation weather report (METAR) to Winchell Mountain Airport

Report is more than 6 hours old.

Closest report is Dutchess County Airport, 25.3 nm (46.9 km) SW.

2022/11/14 14:53 (retrieved 2 years ago)

KPOU 141453Z AUTO 31010KT 10SM FEW047 04/M06 A3031 RMK AO2 SLP262 T00441056 51022

Closest aviation forecast (TAF) to Winchell Mountain Airport

Forecast is more than 12 hours old.

Closest forecast is Dutchess County Airport, 25.3 nm (46.9 km) SW.

2023/02/22 20:16 (retrieved 1 year ago)

TAF KPOU 222014Z 2220/2318 08005KT P6SM OVC050 TEMPO 2220/2222 2SM -SN BR OVC015 FM222200 08005KT 2SM -SN BR OVC012 FM230100 06005KT 3SM -RAPL BR OVC009 FM230300 03005KT 3SM -SHRA BR OVC008 FM231200 01005KT 5SM -DZ BR OVC008